Погода Вышний Станна неделю

Минская область, Белоруссия

23 - 29 июля
  • 23июля
    Сегодня
    +15°
    +27°
    Ясно и безоблачно
    ВремяПогодаТемператураВлажностьДавлениеВетер, м/сВероятность осадков
    00:00Практически безоблачно+18°C93 %744 мм0.0 м/с2 %
    03:00Ясно и безоблачно+17°C95 %744 мм0.3 м/с2 %
    06:00Ясно и безоблачно+16°C97 %745 мм0.6 м/с2 %
    09:00Практически безоблачно+21°C80 %745 мм1.5 м/с2 %
    12:00Ясно и безоблачно+25°C63 %745 мм2.0 м/с1 %
    15:00Ясно и безоблачно+26°C53 %745 мм2.4 м/с16 %
    18:00Ясно и безоблачно+26°C51 %744 мм2.0 м/с5 %
    21:00Практически безоблачно+22°C70 %744 мм0.7 м/с2 %
  • 24июля
    Среда
    +14°
    +27°
    Ясно и безоблачно
    ВремяПогодаТемператураВлажностьДавлениеВетер, м/сВероятность осадков
    00:00Облачно с прояснениями+19°C75 %744 мм0.5 м/с2 %
    03:00Ясно и безоблачно+17°C77 %744 мм0.5 м/с2 %
    06:00Ясно и безоблачно+15°C82 %744 мм0.6 м/с2 %
    09:00Ясно и безоблачно+21°C68 %744 мм1.3 м/с2 %
    12:00Небольшая облачность+25°C47 %744 мм2.0 м/с6 %
    15:00Ясно и безоблачно+26°C43 %743 мм2.5 м/с10 %
    18:00Облачно с прояснениями+25°C47 %742 мм2.2 м/с7 %
    21:00Практически безоблачно+23°C64 %743 мм1.1 м/с1 %
  • 25июля
    Четверг
    +15°
    +27°
    Пасмурно, сплошная облачность
    ВремяПогодаТемператураВлажностьДавлениеВетер, м/сВероятность осадков
    00:00Практически безоблачно+19°C68 %743 мм0.8 м/с2 %
    03:00Ясно и безоблачно+16°C78 %742 мм0.7 м/с2 %
    06:00Ясно и безоблачно+15°C81 %742 мм0.8 м/с2 %
    09:00Практически безоблачно+21°C61 %742 мм1.6 м/с2 %
    12:00Пасмурно, сплошная облачность+25°C41 %742 мм2.3 м/с2 %
    15:00Пасмурно, сплошная облачность+26°C44 %743 мм2.7 м/с2 %
    18:00Облачно с прояснениями+26°C46 %742 мм1.7 м/с2 %
    21:00Небольшая облачность+22°C70 %743 мм0.5 м/с3 %
  • 26июля
    Пятница
    +16°
    +28°
    Облачно с прояснениями
    ВремяПогодаТемператураВлажностьДавлениеВетер, м/сВероятность осадков
    00:00Практически безоблачно+19°C72 %743 мм0.1 м/с2 %
    03:00Облачно с прояснениями+17°C78 %743 мм0.5 м/с2 %
    06:00Облачно с прояснениями+16°C81 %743 мм0.6 м/с4 %
    09:00Облачно с прояснениями+22°C65 %744 мм1.1 м/с3 %
    12:00Облачно с прояснениями+26°C42 %745 мм1.6 м/с13 %
    15:00Облачно с прояснениями+28°C40 %745 мм2.0 м/с24 %
    18:00Практически безоблачно+27°C41 %746 мм1.8 м/с29 %
    21:00Ясно и безоблачно+23°C63 %746 мм0.6 м/с23 %
  • 27июля
    Суббота
    +17°
    +29°
    Ясно и безоблачно
    ВремяПогодаТемператураВлажностьДавлениеВетер, м/сВероятность осадков
    00:00Ясно и безоблачно+20°C87 %747 мм0.1 м/с12 %
    03:00Ясно и безоблачно+18°C88 %748 мм0.3 м/с10 %
    06:00Ясно и безоблачно+17°C97 %748 мм0.4 м/с4 %
    09:00Ясно и безоблачно+23°C73 %749 мм1.2 м/с2 %
    12:00Ясно и безоблачно+27°C48 %749 мм1.6 м/с19 %
    15:00Ясно и безоблачно+28°C43 %749 мм2.1 м/с27 %
    18:00Практически безоблачно+27°C44 %749 мм1.6 м/с41 %
    21:00Практически безоблачно+24°C62 %749 мм0.5 м/с12 %
Мы используем cookies
Соглашаюсь